Página principal
METAR-TAF:

METAR-TAF

Aeroportos :

Xangai-Pudong, China

Aeroporto Internacional de Xangai Pudong

latitude: 31-07N, longitude: 121-46E, altura: 4 m

Observação actual do tempo

O boletim foi feito há 31 minutos, às 14:00 UTC
Vento 6 kt de su-sudeste
Temperatura 20°C
Humidade 94%
Pressão 1016 hPa
Visibilidade 10 km ou mais
Poucas nuvensa uma altura de 2000 ft

METAR: ZSPD 231400Z 15003MPS 9999 FEW020 20/19 Q1016 NOSIG

Hora: 22:31 (14:31 UTC)

Previsão

O boletim foi feito há 5 horas e 6 minutos, às 09:25 UTC
Previsão válida de 23 às 12 UTC a 24 às 12 UTC
Vento 8 kt de es-sudeste
Visibilidade: 6000 m
Nuvens fragmentadasa uma altura de 1300 ft
Temporariamente
de 23 às 22 UTC a 24 às 04 UTC
Nuvens fragmentadasa uma altura de 700 ft
Poucas nuvensa uma altura de 3000 ft, Cumulonimbus.
aguaceiros de chuva

TAF: ZSPD 230925Z 2312/2412 12004MPS 6000 BKN013 TX23/2406Z TN18/2321Z TEMPO 2322/2404 SHRA BKN007 FEW030CB

Observações e previsões do tempo de mais de 4000 aeroportos (mensagens METAR e TAF).

As estações disponíveis são os pontos amarelos e vermelhos sobre o mapa.

Mova o rato sobre o mapa para ver o nome da estação.

Depois clique no ponto para visualizar as observações e previsões meteorológicas.

Para alterar o mapa : clique nos botões verdes com uma cruz preta para aumentar o zoom; no botão verde com uma pitada de zoom; ou nas setas verdes para mapas adjacentes.


METAR-TAF: